Time;durP1;ratioP1;P1;durP2;ratioP2;P2;SDS_P1;SDS_P2;PMS_P1;PMS_P2;Temp;Humidity;BMP_temperature;BMP_pressure;BME280_temperature;BME280_humidity;BME280_pressure;Samples;Min_cycle;Max_cycle;Signal;HPM_P1;HPM_P2
2021/05/14 00:01:54;;;;;;;2.28;1.40;;;409.60;2252.80;;;;;;5094676;28;20498;-71
2021/05/14 00:04:20;;;;;;;5.43;1.75;;;409.60;2278.40;;;;;;5094649;28;20034;-71
2021/05/14 00:06:47;;;;;;;4.07;1.67;;;409.60;2278.40;;;;;;5094613;28;20038;-69
2021/05/14 00:09:14;;;;;;;4.45;1.85;;;409.60;2252.80;;;;;;5094834;28;20102;-71
2021/05/14 00:11:41;;;;;;;3.30;1.98;;;409.60;2252.80;;;;;;5095256;28;20078;-71
2021/05/14 00:14:08;;;;;;;7.80;1.67;;;409.60;2252.80;;;;;;5094246;28;20040;-71
2021/05/14 00:16:34;;;;;;;3.78;2.00;;;409.60;2252.80;;;;;;5094406;28;20503;-71
2021/05/14 00:19:00;;;;;;;3.60;1.77;;;384.90;2252.80;;;;;;5094273;28;20020;-71
2021/05/14 00:21:28;;;;;;;3.58;2.10;;;384.90;2252.80;;;;;;5094268;28;20031;-70
2021/05/14 00:23:54;;;;;;;4.18;2.22;;;409.60;2278.40;;;;;;5094618;28;20423;-70
2021/05/14 00:26:20;;;;;;;3.38;1.98;;;409.60;2252.80;;;;;;5094178;28;20024;-70
2021/05/14 00:28:46;;;;;;;3.75;1.77;;;409.70;2252.80;;;;;;5093331;28;20097;-71
2021/05/14 00:31:12;;;;;;;5.22;1.90;;;409.70;2252.80;;;;;;5094230;28;20031;-69
2021/05/14 00:33:38;;;;;;;5.10;1.90;;;409.70;2252.80;;;;;;5094369;28;20473;-70
2021/05/14 00:36:05;;;;;;;4.10;1.63;;;409.60;2278.40;;;;;;5093891;28;20028;-71
2021/05/14 00:38:31;;;;;;;5.10;1.98;;;409.60;2278.40;;;;;;5093888;28;20020;-71
2021/05/14 00:40:57;;;;;;;4.22;1.77;;;409.60;2252.80;;;;;;5093780;28;20357;-71
2021/05/14 00:43:22;;;;;;;3.47;1.80;;;409.60;2278.40;;;;;;5093766;28;20030;-71
2021/05/14 00:45:48;;;;;;;5.45;2.10;;;409.60;2278.40;;;;;;5094051;28;20028;-70
2021/05/14 00:48:14;;;;;;;7.70;2.60;;;409.60;2278.40;;;;;;5093760;28;20034;-70
2021/05/14 00:50:40;;;;;;;7.90;2.38;;;409.60;2278.40;;;;;;5093778;28;20020;-70
2021/05/14 00:53:06;;;;;;;6.95;2.50;;;409.60;2278.40;;;;;;5093707;28;20028;-70
2021/05/14 00:55:32;;;;;;;5.97;2.35;;;384.90;2252.80;;;;;;5093974;28;20071;-70
2021/05/14 00:57:59;;;;;;;8.18;2.45;;;384.90;2252.80;;;;;;5093943;28;20522;-70
2021/05/14 01:00:25;;;;;;;5.88;2.55;;;409.60;2278.40;;;;;;5093803;28;20451;-70
2021/05/14 01:02:52;;;;;;;4.57;2.17;;;409.60;2278.40;;;;;;5093581;28;20059;-71
2021/05/14 01:05:20;;;;;;;3.97;2.00;;;409.60;2278.40;;;;;;5093511;28;20028;-70
2021/05/14 01:07:45;;;;;;;5.35;2.58;;;409.60;2278.40;;;;;;5093473;28;20024;-71
2021/05/14 01:10:12;;;;;;;5.80;2.42;;;409.70;2278.40;;;;;;5093484;28;20020;-70
2021/05/14 01:12:38;;;;;;;5.45;2.53;;;409.60;2278.40;;;;;;5093489;28;20023;-70
2021/05/14 01:15:04;;;;;;;6.00;2.60;;;409.60;2304.00;;;;;;5093216;28;20105;-70
2021/05/14 01:17:31;;;;;;;5.25;2.70;;;409.60;2304.00;;;;;;5093577;28;20483;-70
2021/05/14 01:19:58;;;;;;;8.18;2.55;;;409.60;2304.00;;;;;;5093398;28;20024;-70
2021/05/14 01:22:25;;;;;;;6.20;2.20;;;384.90;2278.40;;;;;;5092094;28;20093;-70
2021/05/14 01:24:51;;;;;;;4.68;2.92;;;384.90;2278.40;;;;;;5093311;28;20032;-70
2021/05/14 01:27:18;;;;;;;8.25;2.38;;;384.90;2278.40;;;;;;5093561;28;20032;-69
2021/05/14 01:29:44;;;;;;;5.68;2.60;;;384.90;2278.40;;;;;;5093158;28;20035;-70
2021/05/14 01:32:10;;;;;;;4.70;2.28;;;409.60;2304.00;;;;;;5093214;28;20526;-70
2021/05/14 01:34:37;;;;;;;4.55;2.63;;;409.60;2304.00;;;;;;5093532;28;20031;-71
2021/05/14 01:37:03;;;;;;;6.05;2.50;;;384.90;2278.40;;;;;;5093140;28;20071;-70
2021/05/14 01:39:28;;;;;;;6.18;2.85;;;409.60;2278.40;;;;;;5095268;28;20429;-70
2021/05/14 01:41:55;;;;;;;5.45;2.55;;;384.90;2252.80;;;;;;5097369;28;20354;-71
2021/05/14 01:44:22;;;;;;;7.50;2.70;;;409.60;2278.40;;;;;;5097569;28;20103;-71
2021/05/14 01:46:49;;;;;;;6.75;2.47;;;384.90;2252.80;;;;;;5097463;28;20026;-71
2021/05/14 01:49:15;;;;;;;6.20;3.10;;;409.60;2278.40;;;;;;5097486;28;20028;-71
2021/05/14 01:51:41;;;;;;;6.05;2.83;;;409.60;2278.40;;;;;;5097110;28;20027;-71
2021/05/14 01:54:07;;;;;;;7.47;3.00;;;409.60;2278.40;;;;;;5097039;28;20028;-71
2021/05/14 01:56:33;;;;;;;5.75;3.28;;;409.60;2278.40;;;;;;5097174;28;20085;-71
2021/05/14 01:58:59;;;;;;;8.05;2.90;;;384.90;2278.40;;;;;;5095779;28;20415;-70
2021/05/14 02:01:26;;;;;;;7.82;2.88;;;384.90;2252.80;;;;;;5096881;28;20082;-70
2021/05/14 02:03:52;;;;;;;8.95;5.38;;;384.90;2252.80;;;;;;5097202;28;20039;-70
2021/05/14 02:06:18;;;;;;;15.27;10.13;;;384.90;2278.40;;;;;;5096695;28;20460;-70
2021/05/14 02:08:44;;;;;;;11.30;8.32;;;384.90;2252.80;;;;;;5096868;28;20020;-70
2021/05/14 02:11:10;;;;;;;6.95;5.30;;;384.90;2252.80;;;;;;5095584;28;20031;-70
2021/05/14 02:13:40;;;;;;;8.65;5.25;;;384.90;2252.80;;;;;;5096589;28;20056;-70
2021/05/14 02:16:08;;;;;;;6.32;4.28;;;384.80;2278.40;;;;;;5095444;28;20488;-70
2021/05/14 02:18:35;;;;;;;4.97;3.60;;;384.90;2278.40;;;;;;5096702;28;20484;-70
2021/05/14 02:21:01;;;;;;;7.63;4.18;;;384.80;2252.80;;;;;;5096934;28;20051;-70
2021/05/14 02:23:27;;;;;;;7.28;3.40;;;384.90;2252.80;;;;;;5096593;28;20115;-70
2021/05/14 02:25:54;;;;;;;6.22;3.42;;;384.90;2252.80;;;;;;5096627;28;20468;-70
2021/05/14 02:28:20;;;;;;;8.25;2.90;;;384.90;2252.80;;;;;;5096842;28;20070;-70
2021/05/14 02:30:46;;;;;;;6.40;2.50;;;384.90;2278.40;;;;;;5096508;28;20095;-69
2021/05/14 02:33:12;;;;;;;8.82;3.00;;;384.80;2278.40;;;;;;5096369;28;20048;-70
2021/05/14 02:35:39;;;;;;;7.78;3.00;;;384.90;2252.80;;;;;;5096653;28;20020;-70
2021/05/14 02:38:05;;;;;;;7.10;2.63;;;384.80;2278.40;;;;;;5096375;28;20070;-70
2021/05/14 02:40:32;;;;;;;7.03;2.88;;;384.90;2252.80;;;;;;5096326;28;20020;-69
2021/05/14 02:42:58;;;;;;;6.47;3.03;;;384.90;2252.80;;;;;;5096287;28;20028;-70
2021/05/14 02:45:26;;;;;;;5.68;2.60;;;384.90;2252.80;;;;;;5096062;28;20020;-71
2021/05/14 02:47:52;;;;;;;5.18;3.00;;;409.60;2278.40;;;;;;5096141;28;20020;-70
2021/05/14 02:50:17;;;;;;;5.78;2.65;;;409.60;2278.40;;;;;;5095417;28;20020;-70
2021/05/14 02:52:44;;;;;;;4.00;2.55;;;384.90;2252.80;;;;;;5096982;28;20012;-70
2021/05/14 02:55:11;;;;;;;6.43;2.67;;;384.90;2252.80;;;;;;5096029;28;20468;-70
2021/05/14 02:57:36;;;;;;;5.38;3.00;;;384.90;2252.80;;;;;;5095789;28;20047;-70
2021/05/14 03:00:05;;;;;;;5.90;2.55;;;384.90;2252.80;;;;;;5096005;28;20017;-70
2021/05/14 03:02:31;;;;;;;7.95;2.95;;;384.90;2252.80;;;;;;5095645;28;20027;-70
2021/05/14 03:04:57;;;;;;;4.75;2.80;;;384.90;2252.80;;;;;;5095868;28;20046;-70
2021/05/14 03:07:23;;;;;;;9.60;3.50;;;384.90;2252.80;;;;;;5096086;28;20024;-70
2021/05/14 03:09:48;;;;;;;7.55;2.75;;;384.90;2252.80;;;;;;5095936;28;20095;-70
2021/05/14 03:12:15;;;;;;;5.30;2.72;;;409.60;2278.40;;;;;;5096006;28;20461;-70
2021/05/14 03:14:41;;;;;;;7.13;2.85;;;409.60;2278.40;;;;;;5095549;28;20048;-70
2021/05/14 03:17:07;;;;;;;5.47;2.75;;;384.90;2252.80;;;;;;5095731;28;20043;-71
2021/05/14 03:19:33;;;;;;;6.32;3.10;;;409.60;2278.40;;;;;;5095572;28;20020;-71
2021/05/14 03:21:59;;;;;;;7.50;2.92;;;384.90;2252.80;;;;;;5095486;28;20107;-71
2021/05/14 03:24:25;;;;;;;10.35;3.22;;;384.90;2252.80;;;;;;5095422;28;20020;-72
2021/05/14 03:26:53;;;;;;;6.22;3.00;;;384.90;2252.80;;;;;;5095748;28;20444;-71
2021/05/14 03:29:20;;;;;;;6.20;2.60;;;384.80;2252.80;;;;;;5095273;28;20024;-70
2021/05/14 03:31:46;;;;;;;5.70;2.95;;;384.80;2252.80;;;;;;5095338;28;20059;-70
2021/05/14 03:34:13;;;;;;;7.07;2.33;;;384.80;2252.80;;;;;;5095486;28;20074;-71
2021/05/14 03:36:38;;;;;;;7.03;2.63;;;384.80;2252.80;;;;;;5095202;28;20040;-71
2021/05/14 03:39:09;;;;;;;6.28;2.63;;;384.80;2252.80;;;;;;5095114;28;20028;-71
2021/05/14 03:42:13;;;;;;;6.53;2.97;;;384.80;2252.80;;;;;;5095210;28;20465;-71
2021/05/14 03:44:31;;;;;;;6.88;3.13;;;384.90;2227.20;;;;;;5091902;28;20054;-71
2021/05/14 03:46:58;;;;;;;5.68;2.95;;;384.90;2227.20;;;;;;5095060;28;20036;-70
2021/05/14 03:49:24;;;;;;;6.95;2.75;;;384.90;2227.20;;;;;;5095286;28;20024;-71
2021/05/14 03:51:50;;;;;;;9.23;3.00;;;384.80;2252.80;;;;;;5095089;28;20503;-70
2021/05/14 03:54:16;;;;;;;6.80;2.85;;;384.80;2252.80;;;;;;5094882;28;20024;-71
2021/05/14 03:56:42;;;;;;;4.93;2.35;;;384.90;2227.20;;;;;;5094762;28;20373;-70
2021/05/14 03:59:08;;;;;;;5.82;2.20;;;384.90;2252.80;;;;;;5095053;28;20027;-70
2021/05/14 04:01:34;;;;;;;10.15;3.25;;;384.90;2227.20;;;;;;5094594;28;20028;-71
2021/05/14 04:04:00;;;;;;;9.00;3.60;;;384.90;2227.20;;;;;;5094151;28;20023;-70
2021/05/14 04:06:27;;;;;;;6.22;3.30;;;384.90;2252.80;;;;;;5094938;28;20034;-71
2021/05/14 04:08:53;;;;;;;6.93;3.42;;;384.90;2252.80;;;;;;5094923;28;20028;-70
2021/05/14 04:16:49;;;;;;;6.38;2.97;;;384.80;2252.80;;;;;;5054539;28;20428;-70
2021/05/14 04:19:15;;;;;;;8.68;3.60;;;384.80;2252.80;;;;;;5054159;28;20033;-70
2021/05/14 04:21:41;;;;;;;7.50;3.38;;;384.80;2252.80;;;;;;5054218;28;20123;-70
2021/05/14 04:24:07;;;;;;;8.18;3.55;;;384.90;2252.80;;;;;;5054137;28;20053;-70
2021/05/14 04:26:33;;;;;;;5.47;3.72;;;384.90;2227.20;;;;;;5054089;28;20021;-70
2021/05/14 04:28:59;;;;;;;9.63;3.97;;;384.90;2227.20;;;;;;5054073;28;20517;-70
2021/05/14 04:31:26;;;;;;;13.48;10.02;;;384.90;2252.80;;;;;;5053979;28;20082;-70
2021/05/14 04:33:52;;;;;;;11.82;9.05;;;409.60;2252.80;;;;;;5052723;28;20056;-70
2021/05/14 04:36:17;;;;;;;6.22;3.15;;;409.60;2252.80;;;;;;5053788;28;20106;-70
2021/05/14 04:38:43;;;;;;;8.40;4.65;;;409.60;2252.80;;;;;;5053825;28;20029;-70
2021/05/14 04:41:09;;;;;;;9.93;3.15;;;409.60;2252.80;;;;;;5053833;28;20028;-70
2021/05/14 04:43:35;;;;;;;9.60;3.53;;;384.90;2227.20;;;;;;5054135;28;20028;-70
2021/05/14 04:46:01;;;;;;;7.22;3.95;;;384.90;2227.20;;;;;;5053986;28;20082;-70
2021/05/14 04:48:27;;;;;;;33.67;16.67;;;409.60;2252.80;;;;;;5053694;28;20032;-70
2021/05/14 04:50:53;;;;;;;65.15;35.90;;;409.70;2252.80;;;;;;5054155;28;20112;-70
2021/05/14 04:53:21;;;;;;;16.25;7.20;;;409.70;2252.80;;;;;;5053684;28;20389;-69
2021/05/14 04:55:47;;;;;;;7.15;3.83;;;409.80;2252.80;;;;;;5054088;28;20033;-70
2021/05/14 04:58:13;;;;;;;7.30;2.88;;;409.70;2252.80;;;;;;5053835;28;20559;-69
2021/05/14 05:00:39;;;;;;;9.35;2.78;;;409.70;2278.40;;;;;;5053509;28;20025;-70
2021/05/14 05:03:06;;;;;;;4.47;2.88;;;409.70;2278.40;;;;;;5053519;28;20021;-71
2021/05/14 05:05:32;;;;;;;6.97;3.10;;;409.70;2278.40;;;;;;5053738;28;20090;-70
2021/05/14 05:07:58;;;;;;;5.18;3.05;;;409.70;2278.40;;;;;;5053417;28;20029;-70
2021/05/14 05:10:24;;;;;;;5.95;3.00;;;409.70;2278.40;;;;;;5053395;28;20044;-69
2021/05/14 05:12:50;;;;;;;8.02;3.80;;;409.70;2278.40;;;;;;5053389;28;20021;-69
2021/05/14 05:15:17;;;;;;;8.02;3.60;;;409.70;2278.40;;;;;;5092853;28;20048;-70
2021/05/14 05:17:43;;;;;;;8.63;3.38;;;409.70;2278.40;;;;;;5093657;28;20040;-71
2021/05/14 05:20:10;;;;;;;5.82;2.90;;;409.80;2304.00;;;;;;5093634;28;20488;-71
2021/05/14 05:22:36;;;;;;;5.35;2.72;;;409.80;2278.40;;;;;;5093518;28;20047;-70
2021/05/14 05:25:03;;;;;;;6.57;2.58;;;409.70;2278.40;;;;;;5093434;28;20024;-70
2021/05/14 05:27:29;;;;;;;5.30;2.33;;;409.70;2304.00;;;;;;5092173;28;20449;-70
2021/05/14 05:29:55;;;;;;;8.07;2.95;;;409.70;2304.00;;;;;;5093378;28;20059;-70
2021/05/14 05:32:21;;;;;;;6.15;2.65;;;409.70;2278.40;;;;;;5093324;28;20020;-69
2021/05/14 05:34:48;;;;;;;10.48;2.60;;;409.70;2304.00;;;;;;5093696;28;20036;-70
2021/05/14 05:37:14;;;;;;;7.10;2.70;;;409.80;2304.00;;;;;;5093313;28;20036;-70
2021/05/14 05:39:40;;;;;;;8.88;3.03;;;409.80;2278.40;;;;;;5093269;28;20460;-70
2021/05/14 05:42:06;;;;;;;6.07;2.42;;;409.90;2278.40;;;;;;5093637;28;20031;-70
2021/05/14 05:44:32;;;;;;;4.72;2.40;;;409.90;2278.40;;;;;;5093275;28;20498;-70
2021/05/14 05:46:58;;;;;;;4.35;2.40;;;410.00;2278.40;;;;;;5093297;28;20107;-69
2021/05/14 05:49:24;;;;;;;8.38;3.08;;;410.00;2252.80;;;;;;5093507;28;20497;-69
2021/05/14 05:51:51;;;;;;;6.85;3.58;;;410.00;2278.40;;;;;;5093505;28;20025;-69
2021/05/14 05:54:17;;;;;;;8.82;2.97;;;410.10;2252.80;;;;;;5093476;28;20032;-69
2021/05/14 05:56:44;;;;;;;9.13;2.70;;;410.20;2252.80;;;;;;5093281;28;20032;-69
2021/05/14 05:59:12;;;;;;;5.18;2.70;;;410.40;2252.80;;;;;;5093496;28;20093;-69
2021/05/14 06:01:38;;;;;;;5.80;2.88;;;410.50;2227.20;;;;;;5092650;28;20046;-70
2021/05/14 06:04:04;;;;;;;5.15;2.40;;;435.20;2227.20;;;;;;5093536;28;20028;-69
2021/05/14 06:06:30;;;;;;;7.22;2.85;;;435.20;2227.20;;;;;;5093490;28;20032;-69
2021/05/14 06:08:56;;;;;;;8.52;2.60;;;410.50;2201.60;;;;;;5093256;28;20472;-71
2021/05/14 06:11:22;;;;;;;6.50;3.30;;;410.50;2227.20;;;;;;5093035;28;20075;-70
2021/05/14 06:13:47;;;;;;;6.60;2.58;;;410.50;2227.20;;;;;;5092729;28;20052;-70
2021/05/14 06:16:14;;;;;;;6.55;2.53;;;435.20;2227.20;;;;;;5092917;28;20039;-69
2021/05/14 06:18:44;;;;;;;5.95;2.38;;;435.20;2176.00;;;;;;5092806;28;20407;-69
2021/05/14 06:21:10;;;;;;;5.78;2.30;;;435.20;2201.60;;;;;;5090531;28;20032;-70
2021/05/14 06:23:36;;;;;;;9.07;2.88;;;435.20;2201.60;;;;;;5090538;28;20043;-70
2021/05/14 06:26:03;;;;;;;8.02;2.47;;;435.30;2201.60;;;;;;5092018;28;20056;-69
2021/05/14 06:28:29;;;;;;;6.15;2.67;;;435.30;2201.60;;;;;;5094778;28;20111;-69
2021/05/14 06:30:55;;;;;;;9.98;2.63;;;435.40;2176.00;;;;;;5094560;28;20028;-69
2021/05/14 06:33:21;;;;;;;6.68;2.60;;;435.40;2176.00;;;;;;5094800;28;20028;-69
2021/05/14 06:35:49;;;;;;;9.23;2.60;;;435.50;2201.60;;;;;;5094493;28;20032;-69
2021/05/14 06:38:16;;;;;;;5.40;2.42;;;435.60;2150.40;;;;;;5095726;28;20366;-69
2021/05/14 06:40:41;;;;;;;5.78;1.98;;;435.60;2124.80;;;;;;5096706;28;20059;-70
2021/05/14 06:43:07;;;;;;;4.95;2.15;;;435.50;2099.20;;;;;;5096303;28;20035;-70
2021/05/14 06:45:33;;;;;;;4.40;2.10;;;435.60;2124.80;;;;;;5096599;28;20028;-70
2021/05/14 06:48:07;;;;;;;5.22;2.60;;;435.60;2099.20;;;;;;5096183;28;20158;-70
2021/05/14 06:50:35;;;;;;;7.30;1.70;;;435.60;2099.20;;;;;;5095579;28;20031;-69
2021/05/14 06:53:02;;;;;;;9.25;2.30;;;435.60;2099.20;;;;;;5096076;28;20020;-70
2021/05/14 06:55:28;;;;;;;6.75;2.72;;;435.60;2099.20;;;;;;5095218;28;20077;-70
2021/05/14 06:57:54;;;;;;;6.43;2.17;;;435.60;2073.60;;;;;;5094148;28;20122;-69
2021/05/14 07:00:20;;;;;;;6.70;2.00;;;435.70;2073.60;;;;;;5095488;28;20028;-69
2021/05/14 07:02:46;;;;;;;7.90;2.22;;;435.80;2073.60;;;;;;5095216;28;20051;-70
2021/05/14 07:05:14;;;;;;;6.95;2.25;;;435.90;2099.20;;;;;;5095487;28;20024;-70
2021/05/14 07:07:40;;;;;;;5.78;2.15;;;435.90;2073.60;;;;;;5095464;28;20032;-70
2021/05/14 07:10:07;;;;;;;6.95;2.75;;;436.00;2022.40;;;;;;5095348;28;20111;-71
2021/05/14 07:12:35;;;;;;;11.00;2.28;;;436.00;2048.00;;;;;;5095013;28;20020;-72
2021/05/14 07:15:06;;;;;;;10.95;2.22;;;436.00;1996.80;;;;;;5095065;28;20044;-71
2021/05/14 07:17:32;;;;;;;5.60;2.10;;;436.10;1996.80;;;;;;5095611;28;20561;-71
2021/05/14 07:19:59;;;;;;;8.82;2.17;;;436.10;1996.80;;;;;;5095538;28;20476;-72
2021/05/14 07:22:24;;;;;;;5.22;1.90;;;436.10;1996.80;;;;;;5095168;28;20380;-71
2021/05/14 07:24:51;;;;;;;8.73;2.15;;;460.80;1996.80;;;;;;5094170;28;20024;-71
2021/05/14 07:27:17;;;;;;;5.60;1.90;;;460.80;1996.80;;;;;;5094974;28;20124;-71
2021/05/14 07:29:43;;;;;;;6.57;1.80;;;460.80;1945.60;;;;;;5095453;28;20058;-71
2021/05/14 07:32:11;;;;;;;7.82;1.70;;;460.90;1945.60;;;;;;5095418;28;20031;-71
2021/05/14 07:34:37;;;;;;;7.28;1.50;;;460.80;1920.00;;;;;;5095366;28;20051;-71
2021/05/14 07:37:05;;;;;;;5.07;2.03;;;460.90;1920.00;;;;;;5093756;28;20392;-71
2021/05/14 07:39:31;;;;;;;8.00;2.55;;;460.90;1920.00;;;;;;5094561;28;20020;-72
2021/05/14 07:41:57;;;;;;;7.28;1.58;;;461.00;1945.60;;;;;;5094054;28;20024;-71
2021/05/14 07:44:23;;;;;;;4.38;2.40;;;460.90;1920.00;;;;;;5094240;28;20369;-72
2021/05/14 07:46:50;;;;;;;7.53;1.48;;;461.00;1945.60;;;;;;5094034;28;20032;-70
2021/05/14 07:49:16;;;;;;;5.97;1.40;;;461.00;1868.80;;;;;;5094940;28;20483;-71
2021/05/14 07:51:42;;;;;;;4.97;1.40;;;461.00;1894.40;;;;;;5094891;28;20108;-73
2021/05/14 07:54:08;;;;;;;4.93;1.27;;;461.00;1894.40;;;;;;5094946;28;20028;-73
2021/05/14 07:56:34;;;;;;;5.82;1.40;;;461.10;1868.80;;;;;;5093469;28;20115;-73
2021/05/14 07:59:00;;;;;;;4.43;1.30;;;461.10;1894.40;;;;;;5094879;28;20442;-73
2021/05/14 08:01:25;;;;;;;4.05;1.45;;;461.10;1868.80;;;;;;5094813;28;20028;-73
2021/05/14 08:03:51;;;;;;;2.90;1.55;;;461.10;1920.00;;;;;;5088404;28;20077;-72
2021/05/14 08:06:21;;;;;;;6.78;1.95;;;461.20;1920.00;;;;;;5092558;28;20468;-72
2021/05/14 08:08:47;;;;;;;7.80;3.03;;;461.20;1920.00;;;;;;5092407;28;20138;-73
2021/05/14 08:11:13;;;;;;;7.72;2.58;;;461.40;1920.00;;;;;;5092079;28;20032;-70
2021/05/14 08:13:40;;;;;;;3.88;1.27;;;461.50;1894.40;;;;;;5092347;28;20043;-71
2021/05/14 08:16:06;;;;;;;6.15;4.97;;;461.50;1843.20;;;;;;5092394;28;20032;-72
2021/05/14 08:18:32;;;;;;;5.50;3.05;;;461.60;1843.20;;;;;;5092341;28;20035;-72
2021/05/14 08:20:58;;;;;;;6.25;1.50;;;461.60;1843.20;;;;;;5092810;28;20024;-71
2021/05/14 08:23:24;;;;;;;10.60;7.40;;;461.60;1868.80;;;;;;5091013;28;20423;-71
2021/05/14 08:25:51;;;;;;;16.30;12.98;;;461.70;1843.20;;;;;;5093320;28;20024;-70
2021/05/14 08:28:18;;;;;;;2.80;1.35;;;486.40;1792.00;;;;;;5092466;28;20039;-71
2021/05/14 08:30:45;;;;;;;3.65;1.63;;;486.40;1792.00;;;;;;5093393;28;20426;-70
2021/05/14 08:33:11;;;;;;;2.40;1.00;;;486.40;1792.00;;;;;;5091728;28;20078;-70
2021/05/14 08:35:38;;;;;;;6.00;1.20;;;486.40;1792.00;;;;;;5093042;28;20493;-71
2021/05/14 08:38:05;;;;;;;10.95;1.42;;;486.50;1792.00;;;;;;5093088;28;20119;-70
2021/05/14 08:40:33;;;;;;;4.55;1.63;;;486.60;1740.80;;;;;;5092007;28;20024;-71
2021/05/14 08:42:59;;;;;;;5.70;1.70;;;486.70;1766.40;;;;;;5091918;28;20469;-70
2021/05/14 08:45:26;;;;;;;6.97;1.30;;;486.70;1792.00;;;;;;5092390;28;20552;-71
2021/05/14 08:47:56;;;;;;;4.80;1.52;;;486.80;1817.60;;;;;;5092949;28;20036;-71
2021/05/14 08:50:22;;;;;;;5.45;3.88;;;486.80;1792.00;;;;;;5090384;28;20020;-71
2021/05/14 08:52:48;;;;;;;5.60;1.20;;;486.80;1766.40;;;;;;5091310;28;20035;-72
2021/05/14 08:55:15;;;;;;;3.00;1.00;;;486.80;1766.40;;;;;;5090938;28;20024;-70
2021/05/14 08:57:41;;;;;;;5.22;1.17;;;486.90;1740.80;;;;;;5091092;28;20043;-70
2021/05/14 09:00:10;;;;;;;8.45;5.55;;;486.90;1715.20;;;;;;5089627;28;20044;-70
2021/05/14 09:02:37;;;;;;;5.28;2.05;;;486.90;1766.40;;;;;;5089014;28;20044;-71
2021/05/14 09:05:24;;;;;;;14.10;8.20;;;486.90;1664.00;;;;;;5087381;28;20016;-68
2021/05/14 09:07:51;;;;;;;5.72;2.20;;;486.90;1715.20;;;;;;5088621;28;20035;-70
2021/05/14 09:10:18;;;;;;;4.78;1.35;;;487.00;1740.80;;;;;;5090253;28;20027;-70
2021/05/14 09:12:45;;;;;;;1.85;0.77;;;487.00;1689.60;;;;;;5090663;28;20074;-70
2021/05/14 09:15:31;;;;;;;3.08;1.05;;;487.10;1664.00;;;;;;5090792;28;20120;-69
2021/05/14 09:18:10;;;;;;;7.88;1.40;;;487.10;1664.00;;;;;;5095450;28;20163;-69
2021/05/14 09:20:41;;;;;;;4.57;1.00;;;487.10;1664.00;;;;;;5089052;28;20030;-70
2021/05/14 09:23:16;;;;;;;4.68;1.20;;;487.10;1664.00;;;;;;5086789;28;20028;-70
2021/05/14 09:26:03;;;;;;;2.70;1.23;;;487.20;1689.60;;;;;;5090023;28;20115;-69
2021/05/14 09:28:29;;;;;;;3.40;0.90;;;487.30;1664.00;;;;;;5095596;28;20415;-70
2021/05/14 09:31:14;;;;;;;4.22;0.90;;;487.30;1587.20;;;;;;5089925;28;20028;-70
2021/05/14 09:33:48;;;;;;;3.13;0.70;;;512.00;1638.40;;;;;;5088304;28;20093;-70
2021/05/14 09:36:22;;;;;;;3.42;1.00;;;512.00;1612.80;;;;;;5087712;28;20092;-70
2021/05/14 09:39:05;;;;;;;9.68;8.77;;;512.00;1638.40;;;;;;5090499;28;20031;-70
2021/05/14 09:41:38;;;;;;;;;;;512.10;1664.00;;;;;;5090221;28;20107;-69
2021/05/14 09:44:05;;;;;;;5.55;1.58;;;512.10;1638.40;;;;;;5089641;28;20015;-69
2021/05/14 09:46:40;;;;;;;4.63;0.80;;;512.20;1612.80;;;;;;5090002;28;20069;-69
2021/05/14 09:49:21;;;;;;;2.17;0.80;;;512.20;1612.80;;;;;;5090448;28;20084;-70
2021/05/14 09:51:52;;;;;;;3.55;0.80;;;512.20;1664.00;;;;;;5089109;28;20373;-69
2021/05/14 09:54:18;;;;;;;2.72;0.80;;;512.20;1638.40;;;;;;5088359;28;20476;-70
2021/05/14 09:56:45;;;;;;;4.50;0.80;;;512.20;1587.20;;;;;;5090196;28;20024;-70
2021/05/14 09:59:11;;;;;;;2.90;0.90;;;512.10;1587.20;;;;;;5090272;28;20050;-70
2021/05/14 10:01:37;;;;;;;3.10;1.00;;;512.00;1587.20;;;;;;5092527;28;20045;-70
2021/05/14 10:04:03;;;;;;;6.32;1.05;;;512.00;1612.80;;;;;;5094566;28;20024;-70
2021/05/14 10:06:32;;;;;;;6.43;1.25;;;487.30;1587.20;;;;;;5094984;28;20153;-70
2021/05/14 10:09:06;;;;;;;3.28;0.82;;;487.30;1587.20;;;;;;5094925;28;20020;-70
2021/05/14 10:11:33;;;;;;;3.33;1.00;;;487.20;1587.20;;;;;;5093984;28;20054;-70
2021/05/14 10:13:58;;;;;;;3.17;1.27;;;487.20;1612.80;;;;;;5093849;28;20044;-69
2021/05/14 10:16:24;;;;;;;5.68;2.08;;;487.30;1638.40;;;;;;5094370;28;20697;-70
2021/05/14 10:18:53;;;;;;;3.85;1.38;;;512.00;1664.00;;;;;;5093241;28;20611;-70
2021/05/14 10:21:20;;;;;;;52.30;47.50;;;512.00;1612.80;;;;;;5093460;28;20024;-70
2021/05/14 10:23:46;;;;;;;4.45;1.70;;;512.00;1664.00;;;;;;5091208;28;20138;-70
2021/05/14 10:26:13;;;;;;;8.38;1.58;;;512.00;1638.40;;;;;;5092603;28;20027;-70
2021/05/14 10:28:49;;;;;;;5.35;1.70;;;512.00;1664.00;;;;;;5093326;28;20098;-70
2021/05/14 10:31:19;;;;;;;6.93;2.00;;;512.00;1664.00;;;;;;5093820;28;20047;-70
2021/05/14 10:33:49;;;;;;;4.10;1.63;;;487.30;1638.40;;;;;;5091122;28;20066;-70
2021/05/14 10:36:21;;;;;;;5.40;1.75;;;487.20;1664.00;;;;;;5093762;28;20028;-70
2021/05/14 10:39:03;;;;;;;4.13;1.70;;;487.10;1664.00;;;;;;5091678;28;20100;-69
2021/05/14 10:41:30;;;;;;;5.40;1.83;;;487.10;1664.00;;;;;;5091274;28;20508;-70
2021/05/14 10:44:08;;;;;;;6.50;2.03;;;487.10;1689.60;;;;;;5092066;28;20048;-70
2021/05/14 10:46:34;;;;;;;4.47;2.30;;;487.10;1689.60;;;;;;5094070;28;20540;-70
2021/05/14 10:49:04;;;;;;;13.50;2.70;;;487.20;1689.60;;;;;;5092331;28;20482;-72
2021/05/14 10:51:49;;;;;;;6.00;1.50;;;487.20;1664.00;;;;;;5093991;28;20020;-68
2021/05/14 10:54:39;;;;;;;6.15;2.42;;;487.20;1664.00;;;;;;5094500;28;20055;-71
2021/05/14 10:57:12;;;;;;;12.23;5.07;;;487.30;1715.20;;;;;;5094111;28;20105;-70
2021/05/14 10:59:40;;;;;;;7.28;4.03;;;512.00;1715.20;;;;;;5094526;28;20053;-69
2021/05/14 11:02:29;;;;;;;6.65;4.28;;;512.10;1715.20;;;;;;5093910;28;20024;-70
2021/05/14 11:04:59;;;;;;;5.95;1.92;;;512.10;1664.00;;;;;;5094178;28;20099;-70
2021/05/14 11:07:40;;;;;;;7.32;2.13;;;512.00;1638.40;;;;;;5094467;28;20028;-74
2021/05/14 11:10:30;;;;;;;5.40;1.90;;;512.20;1664.00;;;;;;5093564;28;20020;-71
2021/05/14 11:12:57;;;;;;;3.95;2.10;;;512.30;1612.80;;;;;;5084353;28;20514;-71
2021/05/14 11:15:35;;;;;;;7.68;2.00;;;512.20;1664.00;;;;;;5093857;28;20024;-74
2021/05/14 11:18:25;;;;;;;4.20;1.50;;;512.30;1715.20;;;;;;5093163;28;20418;-68
2021/05/14 11:20:52;;;;;;;18.58;2.70;;;512.20;1664.00;;;;;;5086842;28;20702;-70
2021/05/14 11:23:30;;;;;;;21.30;2.55;;;512.30;1664.00;;;;;;5093889;28;20044;-70
2021/05/14 11:25:56;;;;;;;3.80;1.20;;;512.30;1664.00;;;;;;5094395;28;20016;-73
2021/05/14 11:28:46;;;;;;;4.57;1.30;;;512.30;1664.00;;;;;;5094460;28;20016;-75
2021/05/14 11:31:16;;;;;;;5.75;1.10;;;512.50;1638.40;;;;;;5094356;28;20024;-71
2021/05/14 11:33:50;;;;;;;17.23;2.40;;;512.50;1638.40;;;;;;5093999;28;20016;-69
2021/05/14 11:36:17;;;;;;;3.75;1.00;;;512.50;1664.00;;;;;;5094045;28;20108;-69
2021/05/14 11:38:50;;;;;;;6.57;1.27;;;512.80;1612.80;;;;;;5094207;28;20028;-69
2021/05/14 11:41:24;;;;;;;3.00;0.80;;;537.60;1612.80;;;;;;5093718;28;20027;-71
2021/05/14 11:43:57;;;;;;;;;;;537.70;1612.80;;;;;;5094100;28;20020;-68
2021/05/14 11:46:27;;;;;;;6.67;1.00;;;537.80;1561.60;;;;;;5095239;28;19904;-73
2021/05/14 11:48:54;;;;;;;4.22;2.03;;;538.00;1587.20;;;;;;5095037;28;20099;-72
2021/05/14 11:51:20;;;;;;;4.90;1.35;;;538.10;1638.40;;;;;;5095337;28;20024;-73
2021/05/14 11:53:46;;;;;;;4.28;0.75;;;538.10;1612.80;;;;;;5095283;28;20016;-76
2021/05/14 11:56:13;;;;;;;3.38;1.13;;;538.10;1536.00;;;;;;5094827;28;20477;-72
2021/05/14 11:58:39;;;;;;;2.15;0.90;;;538.10;1561.60;;;;;;5095003;28;20024;-70
2021/05/14 12:01:07;;;;;;;2.90;1.30;;;538.10;1612.80;;;;;;5094787;28;20023;-69
2021/05/14 12:03:33;;;;;;;4.05;0.80;;;538.00;1536.00;;;;;;5094692;28;20020;-70
2021/05/14 12:06:11;;;;;;;3.58;0.95;;;537.80;1536.00;;;;;;5094691;28;20376;-70
2021/05/14 12:08:37;;;;;;;1.75;0.77;;;537.70;1536.00;;;;;;5095284;28;20064;-70
2021/05/14 12:11:10;;;;;;;3.30;0.73;;;537.70;1561.60;;;;;;5095119;28;20367;-69
2021/05/14 12:13:41;;;;;;;3.20;1.42;;;537.70;1536.00;;;;;;5094615;28;20405;-70
2021/05/14 12:16:20;;;;;;;4.32;1.35;;;537.60;1612.80;;;;;;5094470;28;20031;-70
2021/05/14 12:18:57;;;;;;;4.15;1.00;;;537.60;1587.20;;;;;;5094727;28;20048;-70
2021/05/14 12:21:24;;;;;;;6.00;1.40;;;512.90;1587.20;;;;;;5094398;28;20031;-70
2021/05/14 12:23:51;;;;;;;3.15;1.00;;;512.80;1561.60;;;;;;5093565;28;20448;-70
2021/05/14 12:26:17;;;;;;;5.88;1.05;;;512.90;1561.60;;;;;;5094372;28;20064;-70